sensor_id;sensor_type;location;lat;lon;timestamp;temperature;humidity
4356;DHT22;64374;51.482;7.408;2023-04-24T00:00:08;13.50;99.90
4356;DHT22;64374;51.482;7.408;2023-04-24T00:02:37;13.70;99.90
4356;DHT22;64374;51.482;7.408;2023-04-24T00:05:09;13.40;99.90
4356;DHT22;64374;51.482;7.408;2023-04-24T00:07:39;13.70;99.90
4356;DHT22;64374;51.482;7.408;2023-04-24T00:10:09;13.70;99.90
4356;DHT22;64374;51.482;7.408;2023-04-24T00:12:38;13.90;99.90
4356;DHT22;64374;51.482;7.408;2023-04-24T00:15:08;14.10;99.90
4356;DHT22;64374;51.482;7.408;2023-04-24T00:17:37;14.40;99.90
4356;DHT22;64374;51.482;7.408;2023-04-24T00:20:07;14.10;99.90
4356;DHT22;64374;51.482;7.408;2023-04-24T00:22:38;13.70;99.90
4356;DHT22;64374;51.482;7.408;2023-04-24T00:25:09;13.70;99.90
4356;DHT22;64374;51.482;7.408;2023-04-24T00:27:38;13.60;99.90
4356;DHT22;64374;51.482;7.408;2023-04-24T00:30:07;13.50;99.90
4356;DHT22;64374;51.482;7.408;2023-04-24T00:32:36;13.30;99.90
4356;DHT22;64374;51.482;7.408;2023-04-24T00:35:05;13.00;99.90
4356;DHT22;64374;51.482;7.408;2023-04-24T00:37:33;12.80;99.90
4356;DHT22;64374;51.482;7.408;2023-04-24T00:40:05;12.90;99.90
4356;DHT22;64374;51.482;7.408;2023-04-24T00:42:34;13.00;99.90
4356;DHT22;64374;51.482;7.408;2023-04-24T00:45:05;12.80;99.90
4356;DHT22;64374;51.482;7.408;2023-04-24T00:47:34;12.90;99.90
4356;DHT22;64374;51.482;7.408;2023-04-24T00:50:06;12.90;99.90
4356;DHT22;64374;51.482;7.408;2023-04-24T00:52:35;13.00;99.90
4356;DHT22;64374;51.482;7.408;2023-04-24T00:55:06;13.20;99.90
4356;DHT22;64374;51.482;7.408;2023-04-24T00:57:35;13.00;99.90
4356;DHT22;64374;51.482;7.408;2023-04-24T01:00:05;13.10;99.90
4356;DHT22;64374;51.482;7.408;2023-04-24T01:02:37;13.40;99.90
4356;DHT22;64374;51.482;7.408;2023-04-24T01:05:12;13.00;99.90
4356;DHT22;64374;51.482;7.408;2023-04-24T01:07:43;13.20;99.90
4356;DHT22;64374;51.482;7.408;2023-04-24T01:10:15;13.10;99.90
4356;DHT22;64374;51.482;7.408;2023-04-24T01:12:45;13.30;99.90
4356;DHT22;64374;51.482;7.408;2023-04-24T01:15:14;12.80;99.90
4356;DHT22;64374;51.482;7.408;2023-04-24T01:17:42;12.80;99.90
4356;DHT22;64374;51.482;7.408;2023-04-24T01:20:14;12.50;99.90
4356;DHT22;64374;51.482;7.408;2023-04-24T01:22:43;12.30;99.90
4356;DHT22;64374;51.482;7.408;2023-04-24T01:25:12;12.30;99.90
4356;DHT22;64374;51.482;7.408;2023-04-24T01:27:40;12.50;99.90
4356;DHT22;64374;51.482;7.408;2023-04-24T01:30:11;12.30;99.90
4356;DHT22;64374;51.482;7.408;2023-04-24T01:32:40;12.50;99.90
4356;DHT22;64374;51.482;7.408;2023-04-24T01:35:08;12.30;99.90
4356;DHT22;64374;51.482;7.408;2023-04-24T01:37:37;12.50;99.90
4356;DHT22;64374;51.482;7.408;2023-04-24T01:40:08;12.40;99.90
4356;DHT22;64374;51.482;7.408;2023-04-24T01:42:36;11.90;99.90
4356;DHT22;64374;51.482;7.408;2023-04-24T01:45:06;12.00;99.90
4356;DHT22;64374;51.482;7.408;2023-04-24T01:47:34;12.10;99.90
4356;DHT22;64374;51.482;7.408;2023-04-24T01:50:04;12.20;99.90
4356;DHT22;64374;51.482;7.408;2023-04-24T01:52:32;12.30;99.90
4356;DHT22;64374;51.482;7.408;2023-04-24T01:55:02;12.30;99.90
4356;DHT22;64374;51.482;7.408;2023-04-24T01:57:33;12.50;99.90
4356;DHT22;64374;51.482;7.408;2023-04-24T02:00:02;12.60;99.90
4356;DHT22;64374;51.482;7.408;2023-04-24T02:02:39;12.60;99.90
4356;DHT22;64374;51.482;7.408;2023-04-24T02:05:13;12.70;99.90
4356;DHT22;64374;51.482;7.408;2023-04-24T02:07:42;12.80;99.90
4356;DHT22;64374;51.482;7.408;2023-04-24T02:10:11;12.70;99.90
4356;DHT22;64374;51.482;7.408;2023-04-24T02:12:43;12.60;99.90
4356;DHT22;64374;51.482;7.408;2023-04-24T02:15:11;12.50;99.90
4356;DHT22;64374;51.482;7.408;2023-04-24T02:17:41;12.80;99.90
4356;DHT22;64374;51.482;7.408;2023-04-24T02:20:10;12.70;99.90
4356;DHT22;64374;51.482;7.408;2023-04-24T02:22:38;12.20;99.90
4356;DHT22;64374;51.482;7.408;2023-04-24T02:25:07;12.00;99.90
4356;DHT22;64374;51.482;7.408;2023-04-24T02:27:35;11.90;99.90
4356;DHT22;64374;51.482;7.408;2023-04-24T02:30:09;11.80;99.90
4356;DHT22;64374;51.482;7.408;2023-04-24T02:32:38;11.90;99.90
4356;DHT22;64374;51.482;7.408;2023-04-24T02:35:11;11.60;99.90
4356;DHT22;64374;51.482;7.408;2023-04-24T02:37:40;11.60;99.90
4356;DHT22;64374;51.482;7.408;2023-04-24T02:40:12;11.70;99.90
4356;DHT22;64374;51.482;7.408;2023-04-24T02:42:40;11.50;99.90
4356;DHT22;64374;51.482;7.408;2023-04-24T02:45:10;11.70;99.90
4356;DHT22;64374;51.482;7.408;2023-04-24T02:47:40;11.50;99.90
4356;DHT22;64374;51.482;7.408;2023-04-24T02:50:08;11.50;99.90
4356;DHT22;64374;51.482;7.408;2023-04-24T02:52:37;11.20;99.90
4356;DHT22;64374;51.482;7.408;2023-04-24T02:55:06;11.40;99.90
4356;DHT22;64374;51.482;7.408;2023-04-24T02:57:36;11.50;99.90
4356;DHT22;64374;51.482;7.408;2023-04-24T03:00:06;11.30;99.90
4356;DHT22;64374;51.482;7.408;2023-04-24T03:02:42;11.30;99.90
4356;DHT22;64374;51.482;7.408;2023-04-24T03:05:11;11.00;99.90
4356;DHT22;64374;51.482;7.408;2023-04-24T03:07:40;11.30;99.90
4356;DHT22;64374;51.482;7.408;2023-04-24T03:10:09;11.30;99.90
4356;DHT22;64374;51.482;7.408;2023-04-24T03:12:38;11.10;99.90
4356;DHT22;64374;51.482;7.408;2023-04-24T03:15:08;11.30;99.90
4356;DHT22;64374;51.482;7.408;2023-04-24T03:17:37;11.60;99.90
4356;DHT22;64374;51.482;7.408;2023-04-24T03:20:08;11.70;99.90
4356;DHT22;64374;51.482;7.408;2023-04-24T03:22:37;11.70;99.90
4356;DHT22;64374;51.482;7.408;2023-04-24T03:25:09;11.30;99.90
4356;DHT22;64374;51.482;7.408;2023-04-24T03:27:38;11.20;99.90
4356;DHT22;64374;51.482;7.408;2023-04-24T03:30:17;11.30;99.90
4356;DHT22;64374;51.482;7.408;2023-04-24T03:32:51;11.00;99.90
4356;DHT22;64374;51.482;7.408;2023-04-24T03:35:26;10.80;99.90
4356;DHT22;64374;51.482;7.408;2023-04-24T03:37:56;11.00;99.90
4356;DHT22;64374;51.482;7.408;2023-04-24T03:40:43;11.00;99.90
4356;DHT22;64374;51.482;7.408;2023-04-24T03:43:36;11.10;99.90
4356;DHT22;64374;51.482;7.408;2023-04-24T03:46:05;11.20;99.90
4356;DHT22;64374;51.482;7.408;2023-04-24T03:48:38;11.30;99.90
4356;DHT22;64374;51.482;7.408;2023-04-24T03:51:09;11.40;99.90
4356;DHT22;64374;51.482;7.408;2023-04-24T03:53:42;11.30;99.90
4356;DHT22;64374;51.482;7.408;2023-04-24T03:56:12;11.20;99.90
4356;DHT22;64374;51.482;7.408;2023-04-24T03:58:41;11.50;99.90
4356;DHT22;64374;51.482;7.408;2023-04-24T04:01:11;11.60;99.90
4356;DHT22;64374;51.482;7.408;2023-04-24T04:03:52;11.70;99.90
4356;DHT22;64374;51.482;7.408;2023-04-24T04:06:25;11.80;99.90
4356;DHT22;64374;51.482;7.408;2023-04-24T04:08:55;11.60;99.90
4356;DHT22;64374;51.482;7.408;2023-04-24T04:11:24;11.60;99.90
4356;DHT22;64374;51.482;7.408;2023-04-24T04:13:52;11.30;99.90
4356;DHT22;64374;51.482;7.408;2023-04-24T04:16:21;11.40;99.90
4356;DHT22;64374;51.482;7.408;2023-04-24T04:18:55;11.50;99.90
4356;DHT22;64374;51.482;7.408;2023-04-24T04:21:26;11.70;99.90
4356;DHT22;64374;51.482;7.408;2023-04-24T04:24:03;11.80;99.90
4356;DHT22;64374;51.482;7.408;2023-04-24T04:26:37;11.90;99.90
4356;DHT22;64374;51.482;7.408;2023-04-24T04:29:08;11.70;99.90
4356;DHT22;64374;51.482;7.408;2023-04-24T04:31:41;11.30;99.90
4356;DHT22;64374;51.482;7.408;2023-04-24T04:34:15;11.50;99.90
4356;DHT22;64374;51.482;7.408;2023-04-24T04:36:45;11.60;99.90
4356;DHT22;64374;51.482;7.408;2023-04-24T04:39:28;11.70;99.90
4356;DHT22;64374;51.482;7.408;2023-04-24T04:42:00;11.80;99.90
4356;DHT22;64374;51.482;7.408;2023-04-24T04:44:36;11.50;99.90
4356;DHT22;64374;51.482;7.408;2023-04-24T04:47:07;11.50;99.90
4356;DHT22;64374;51.482;7.408;2023-04-24T04:49:37;11.70;99.90
4356;DHT22;64374;51.482;7.408;2023-04-24T04:52:13;11.60;99.90
4356;DHT22;64374;51.482;7.408;2023-04-24T04:54:43;11.60;99.90
4356;DHT22;64374;51.482;7.408;2023-04-24T04:57:13;11.30;99.90
4356;DHT22;64374;51.482;7.408;2023-04-24T04:59:41;11.40;99.90
4356;DHT22;64374;51.482;7.408;2023-04-24T05:02:15;11.40;99.90
4356;DHT22;64374;51.482;7.408;2023-04-24T05:04:44;11.20;99.90
4356;DHT22;64374;51.482;7.408;2023-04-24T05:07:14;11.30;99.90
4356;DHT22;64374;51.482;7.408;2023-04-24T05:09:47;11.50;99.90
4356;DHT22;64374;51.482;7.408;2023-04-24T05:12:15;11.20;99.90
4356;DHT22;64374;51.482;7.408;2023-04-24T05:14:50;11.10;99.90
4356;DHT22;64374;51.482;7.408;2023-04-24T05:17:18;11.30;99.90
4356;DHT22;64374;51.482;7.408;2023-04-24T05:19:47;11.50;99.90
4356;DHT22;64374;51.482;7.408;2023-04-24T05:22:17;11.70;99.90
4356;DHT22;64374;51.482;7.408;2023-04-24T05:24:51;11.40;99.90
4356;DHT22;64374;51.482;7.408;2023-04-24T05:27:33;11.50;99.90
4356;DHT22;64374;51.482;7.408;2023-04-24T05:30:07;11.30;99.90
4356;DHT22;64374;51.482;7.408;2023-04-24T05:32:38;11.30;99.90
4356;DHT22;64374;51.482;7.408;2023-04-24T05:35:07;11.10;99.90
4356;DHT22;64374;51.482;7.408;2023-04-24T05:37:37;11.10;99.90
4356;DHT22;64374;51.482;7.408;2023-04-24T05:40:08;11.20;99.90
4356;DHT22;64374;51.482;7.408;2023-04-24T05:42:36;11.20;99.90
4356;DHT22;64374;51.482;7.408;2023-04-24T05:45:05;11.20;99.90
4356;DHT22;64374;51.482;7.408;2023-04-24T05:47:37;11.10;99.90
4356;DHT22;64374;51.482;7.408;2023-04-24T05:50:06;11.10;99.90
4356;DHT22;64374;51.482;7.408;2023-04-24T05:52:36;11.30;99.90
4356;DHT22;64374;51.482;7.408;2023-04-24T05:55:17;11.30;99.90
4356;DHT22;64374;51.482;7.408;2023-04-24T05:57:46;11.30;99.90
4356;DHT22;64374;51.482;7.408;2023-04-24T06:00:15;11.00;99.90
4356;DHT22;64374;51.482;7.408;2023-04-24T06:02:50;11.00;99.90
4356;DHT22;64374;51.482;7.408;2023-04-24T06:05:21;11.10;99.90
4356;DHT22;64374;51.482;7.408;2023-04-24T06:07:54;10.70;99.90
4356;DHT22;64374;51.482;7.408;2023-04-24T06:10:25;10.80;99.90
4356;DHT22;64374;51.482;7.408;2023-04-24T06:12:53;11.00;99.90
4356;DHT22;64374;51.482;7.408;2023-04-24T06:15:23;11.20;99.90
4356;DHT22;64374;51.482;7.408;2023-04-24T06:18:05;11.30;99.90
4356;DHT22;64374;51.482;7.408;2023-04-24T06:20:35;11.00;99.90
4356;DHT22;64374;51.482;7.408;2023-04-24T06:23:05;10.90;99.90
4356;DHT22;64374;51.482;7.408;2023-04-24T06:25:33;11.10;99.90
4356;DHT22;64374;51.482;7.408;2023-04-24T06:28:02;11.00;99.90
4356;DHT22;64374;51.482;7.408;2023-04-24T06:30:30;11.00;99.90
4356;DHT22;64374;51.482;7.408;2023-04-24T06:32:59;11.00;99.90
4356;DHT22;64374;51.482;7.408;2023-04-24T06:35:45;11.20;99.90
4356;DHT22;64374;51.482;7.408;2023-04-24T06:38:17;11.30;99.90
4356;DHT22;64374;51.482;7.408;2023-04-24T06:40:46;11.00;99.90
4356;DHT22;64374;51.482;7.408;2023-04-24T06:43:14;10.90;99.90
4356;DHT22;64374;51.482;7.408;2023-04-24T06:45:43;11.00;99.90
4356;DHT22;64374;51.482;7.408;2023-04-24T06:48:12;11.20;99.90
4356;DHT22;64374;51.482;7.408;2023-04-24T06:50:40;11.20;99.90
4356;DHT22;64374;51.482;7.408;2023-04-24T06:53:09;10.90;99.90
4356;DHT22;64374;51.482;7.408;2023-04-24T06:55:42;11.30;99.90
4356;DHT22;64374;51.482;7.408;2023-04-24T06:58:12;11.40;99.90
4356;DHT22;64374;51.482;7.408;2023-04-24T07:00:41;11.30;99.90
4356;DHT22;64374;51.482;7.408;2023-04-24T07:03:10;11.00;99.90
4356;DHT22;64374;51.482;7.408;2023-04-24T07:05:39;11.10;99.90
4356;DHT22;64374;51.482;7.408;2023-04-24T07:08:08;11.00;99.90
4356;DHT22;64374;51.482;7.408;2023-04-24T07:10:39;10.80;99.90
4356;DHT22;64374;51.482;7.408;2023-04-24T07:13:09;10.80;99.90
4356;DHT22;64374;51.482;7.408;2023-04-24T07:15:37;11.10;99.90
4356;DHT22;64374;51.482;7.408;2023-04-24T07:18:07;11.00;99.90
4356;DHT22;64374;51.482;7.408;2023-04-24T07:20:35;11.00;99.90
4356;DHT22;64374;51.482;7.408;2023-04-24T07:23:05;11.00;99.90
4356;DHT22;64374;51.482;7.408;2023-04-24T07:25:33;10.70;99.90
4356;DHT22;64374;51.482;7.408;2023-04-24T07:28:02;10.90;99.90
4356;DHT22;64374;51.482;7.408;2023-04-24T07:30:35;10.90;99.90
4356;DHT22;64374;51.482;7.408;2023-04-24T07:33:04;11.10;99.90
4356;DHT22;64374;51.482;7.408;2023-04-24T07:35:33;11.30;99.90
4356;DHT22;64374;51.482;7.408;2023-04-24T07:38:02;11.20;99.90
4356;DHT22;64374;51.482;7.408;2023-04-24T07:40:31;11.00;99.90
4356;DHT22;64374;51.482;7.408;2023-04-24T07:42:59;10.50;99.90
4356;DHT22;64374;51.482;7.408;2023-04-24T07:45:27;10.50;99.90
4356;DHT22;64374;51.482;7.408;2023-04-24T07:48:00;10.80;99.90
4356;DHT22;64374;51.482;7.408;2023-04-24T07:50:29;11.00;99.90
4356;DHT22;64374;51.482;7.408;2023-04-24T07:52:57;11.10;99.90
4356;DHT22;64374;51.482;7.408;2023-04-24T07:55:26;11.00;99.90
4356;DHT22;64374;51.482;7.408;2023-04-24T07:57:55;11.00;99.90
4356;DHT22;64374;51.482;7.408;2023-04-24T08:00:24;11.00;99.90
4356;DHT22;64374;51.482;7.408;2023-04-24T08:02:53;10.80;99.90
4356;DHT22;64374;51.482;7.408;2023-04-24T08:05:24;10.50;99.90
4356;DHT22;64374;51.482;7.408;2023-04-24T08:07:54;10.60;99.90
4356;DHT22;64374;51.482;7.408;2023-04-24T08:10:24;10.80;99.90
4356;DHT22;64374;51.482;7.408;2023-04-24T08:12:53;10.80;99.90
4356;DHT22;64374;51.482;7.408;2023-04-24T08:15:22;10.70;99.90
4356;DHT22;64374;51.482;7.408;2023-04-24T08:17:50;10.60;99.90
4356;DHT22;64374;51.482;7.408;2023-04-24T08:20:21;10.60;99.90
4356;DHT22;64374;51.482;7.408;2023-04-24T08:22:51;10.70;99.90
4356;DHT22;64374;51.482;7.408;2023-04-24T08:25:20;10.60;99.90
4356;DHT22;64374;51.482;7.408;2023-04-24T08:27:50;10.40;99.90
4356;DHT22;64374;51.482;7.408;2023-04-24T08:30:19;10.40;99.90
4356;DHT22;64374;51.482;7.408;2023-04-24T08:32:47;10.60;99.90
4356;DHT22;64374;51.482;7.408;2023-04-24T08:35:16;10.50;99.90
4356;DHT22;64374;51.482;7.408;2023-04-24T08:37:46;10.30;99.90
4356;DHT22;64374;51.482;7.408;2023-04-24T08:40:16;10.40;99.90
4356;DHT22;64374;51.482;7.408;2023-04-24T08:42:49;10.10;99.90
4356;DHT22;64374;51.482;7.408;2023-04-24T08:45:21;10.40;99.90
4356;DHT22;64374;51.482;7.408;2023-04-24T08:47:52;10.40;99.90
4356;DHT22;64374;51.482;7.408;2023-04-24T08:50:23;10.40;99.90
4356;DHT22;64374;51.482;7.408;2023-04-24T08:52:52;10.30;99.90
4356;DHT22;64374;51.482;7.408;2023-04-24T08:55:25;10.20;99.90
4356;DHT22;64374;51.482;7.408;2023-04-24T08:57:54;10.30;99.90
4356;DHT22;64374;51.482;7.408;2023-04-24T09:00:23;10.40;99.90
4356;DHT22;64374;51.482;7.408;2023-04-24T09:02:53;10.20;99.90
4356;DHT22;64374;51.482;7.408;2023-04-24T09:05:22;10.20;99.90
4356;DHT22;64374;51.482;7.408;2023-04-24T09:07:56;10.20;99.90
4356;DHT22;64374;51.482;7.408;2023-04-24T09:10:26;9.90;99.90
4356;DHT22;64374;51.482;7.408;2023-04-24T09:12:59;9.90;99.90
4356;DHT22;64374;51.482;7.408;2023-04-24T09:15:30;9.90;99.90
4356;DHT22;64374;51.482;7.408;2023-04-24T09:17:58;9.90;99.90
4356;DHT22;64374;51.482;7.408;2023-04-24T09:20:26;9.90;99.90
4356;DHT22;64374;51.482;7.408;2023-04-24T09:22:57;9.80;99.90
4356;DHT22;64374;51.482;7.408;2023-04-24T09:25:34;9.90;99.90
4356;DHT22;64374;51.482;7.408;2023-04-24T09:28:04;9.80;99.90
4356;DHT22;64374;51.482;7.408;2023-04-24T09:30:33;9.80;99.90
4356;DHT22;64374;51.482;7.408;2023-04-24T09:33:10;9.90;99.90
4356;DHT22;64374;51.482;7.408;2023-04-24T09:35:40;9.60;99.90
4356;DHT22;64374;51.482;7.408;2023-04-24T09:38:10;9.90;99.90
4356;DHT22;64374;51.482;7.408;2023-04-24T09:40:40;9.90;99.90
4356;DHT22;64374;51.482;7.408;2023-04-24T09:43:11;10.10;99.90
4356;DHT22;64374;51.482;7.408;2023-04-24T09:45:41;10.20;99.90
4356;DHT22;64374;51.482;7.408;2023-04-24T09:48:11;10.10;99.90
4356;DHT22;64374;51.482;7.408;2023-04-24T09:50:39;10.00;99.90
4356;DHT22;64374;51.482;7.408;2023-04-24T09:53:07;10.00;99.90
4356;DHT22;64374;51.482;7.408;2023-04-24T09:55:44;9.90;99.90
4356;DHT22;64374;51.482;7.408;2023-04-24T09:58:13;10.20;99.90
4356;DHT22;64374;51.482;7.408;2023-04-24T10:00:41;10.40;99.90
4356;DHT22;64374;51.482;7.408;2023-04-24T10:03:09;10.40;99.90
4356;DHT22;64374;51.482;7.408;2023-04-24T10:05:40;10.70;99.90
4356;DHT22;64374;51.482;7.408;2023-04-24T10:08:13;10.90;99.90
4356;DHT22;64374;51.482;7.408;2023-04-24T10:10:46;10.30;99.90
4356;DHT22;64374;51.482;7.408;2023-04-24T10:13:15;10.00;99.90
4356;DHT22;64374;51.482;7.408;2023-04-24T10:15:44;9.90;99.90
4356;DHT22;64374;51.482;7.408;2023-04-24T10:18:14;9.70;99.90
4356;DHT22;64374;51.482;7.408;2023-04-24T10:21:05;9.70;99.90
4356;DHT22;64374;51.482;7.408;2023-04-24T10:23:35;9.80;99.90
4356;DHT22;64374;51.482;7.408;2023-04-24T10:26:05;9.80;99.90
4356;DHT22;64374;51.482;7.408;2023-04-24T10:28:35;9.80;99.90
4356;DHT22;64374;51.482;7.408;2023-04-24T10:31:04;9.70;99.90
4356;DHT22;64374;51.482;7.408;2023-04-24T10:33:33;9.70;99.90
4356;DHT22;64374;51.482;7.408;2023-04-24T10:36:02;9.40;99.90
4356;DHT22;64374;51.482;7.408;2023-04-24T10:38:31;9.40;99.90
4356;DHT22;64374;51.482;7.408;2023-04-24T10:41:08;9.30;99.90
4356;DHT22;64374;51.482;7.408;2023-04-24T10:43:41;9.60;99.90
4356;DHT22;64374;51.482;7.408;2023-04-24T10:46:09;9.70;99.90
4356;DHT22;64374;51.482;7.408;2023-04-24T10:48:42;9.60;99.90
4356;DHT22;64374;51.482;7.408;2023-04-24T10:51:13;9.70;99.90
4356;DHT22;64374;51.482;7.408;2023-04-24T10:53:41;9.70;99.90
4356;DHT22;64374;51.482;7.408;2023-04-24T10:56:11;9.70;99.90
4356;DHT22;64374;51.482;7.408;2023-04-24T10:58:42;9.80;99.90
4356;DHT22;64374;51.482;7.408;2023-04-24T11:01:24;10.00;99.90
4356;DHT22;64374;51.482;7.408;2023-04-24T11:03:55;10.20;99.90
4356;DHT22;64374;51.482;7.408;2023-04-24T11:06:29;10.20;99.90
4356;DHT22;64374;51.482;7.408;2023-04-24T11:09:03;10.30;99.90
4356;DHT22;64374;51.482;7.408;2023-04-24T11:11:35;10.00;99.90
4356;DHT22;64374;51.482;7.408;2023-04-24T11:14:06;9.90;99.90
4356;DHT22;64374;51.482;7.408;2023-04-24T11:16:38;10.00;99.90
4356;DHT22;64374;51.482;7.408;2023-04-24T11:19:09;10.20;99.90
4356;DHT22;64374;51.482;7.408;2023-04-24T11:21:41;10.20;99.90
4356;DHT22;64374;51.482;7.408;2023-04-24T11:24:31;10.20;99.90
4356;DHT22;64374;51.482;7.408;2023-04-24T11:27:06;10.10;99.90
4356;DHT22;64374;51.482;7.408;2023-04-24T11:29:40;10.30;99.90
4356;DHT22;64374;51.482;7.408;2023-04-24T11:32:25;10.50;99.90
4356;DHT22;64374;51.482;7.408;2023-04-24T11:34:57;10.30;99.90
4356;DHT22;64374;51.482;7.408;2023-04-24T11:37:27;10.30;99.90
4356;DHT22;64374;51.482;7.408;2023-04-24T11:39:58;10.20;99.90
4356;DHT22;64374;51.482;7.408;2023-04-24T11:42:34;10.10;99.90
4356;DHT22;64374;51.482;7.408;2023-04-24T11:45:08;10.20;99.90
4356;DHT22;64374;51.482;7.408;2023-04-24T11:47:37;10.20;99.90
4356;DHT22;64374;51.482;7.408;2023-04-24T11:50:07;10.40;99.90
4356;DHT22;64374;51.482;7.408;2023-04-24T11:52:37;10.30;99.90
4356;DHT22;64374;51.482;7.408;2023-04-24T11:55:07;10.50;99.90
4356;DHT22;64374;51.482;7.408;2023-04-24T11:57:38;10.70;99.90
4356;DHT22;64374;51.482;7.408;2023-04-24T12:00:08;10.90;99.90
4356;DHT22;64374;51.482;7.408;2023-04-24T12:02:39;11.00;99.90
4356;DHT22;64374;51.482;7.408;2023-04-24T12:05:19;10.90;99.90
4356;DHT22;64374;51.482;7.408;2023-04-24T12:07:52;10.60;99.90
4356;DHT22;64374;51.482;7.408;2023-04-24T12:10:24;10.80;99.90
4356;DHT22;64374;51.482;7.408;2023-04-24T12:12:55;10.80;99.90
4356;DHT22;64374;51.482;7.408;2023-04-24T12:15:24;10.50;99.90
4356;DHT22;64374;51.482;7.408;2023-04-24T12:17:53;10.50;99.90
4356;DHT22;64374;51.482;7.408;2023-04-24T12:20:28;10.60;99.90
4356;DHT22;64374;51.482;7.408;2023-04-24T12:22:58;10.40;99.90
4356;DHT22;64374;51.482;7.408;2023-04-24T12:25:28;10.40;99.90
4356;DHT22;64374;51.482;7.408;2023-04-24T12:28:10;10.50;99.90
4356;DHT22;64374;51.482;7.408;2023-04-24T12:30:41;10.10;99.90
4356;DHT22;64374;51.482;7.408;2023-04-24T12:33:12;10.30;99.90
4356;DHT22;64374;51.482;7.408;2023-04-24T12:35:40;10.40;99.90
4356;DHT22;64374;51.482;7.408;2023-04-24T12:38:11;10.60;99.90
4356;DHT22;64374;51.482;7.408;2023-04-24T12:40:41;10.60;99.90
4356;DHT22;64374;51.482;7.408;2023-04-24T12:43:16;10.90;99.90
4356;DHT22;64374;51.482;7.408;2023-04-24T12:45:45;10.90;99.90
4356;DHT22;64374;51.482;7.408;2023-04-24T12:48:14;11.10;99.90
4356;DHT22;64374;51.482;7.408;2023-04-24T12:50:43;11.20;99.90
4356;DHT22;64374;51.482;7.408;2023-04-24T12:53:14;11.40;99.90
4356;DHT22;64374;51.482;7.408;2023-04-24T12:55:43;11.30;99.90
4356;DHT22;64374;51.482;7.408;2023-04-24T12:58:15;11.30;99.90
4356;DHT22;64374;51.482;7.408;2023-04-24T13:00:45;11.40;99.90
4356;DHT22;64374;51.482;7.408;2023-04-24T13:03:14;11.30;99.90
4356;DHT22;64374;51.482;7.408;2023-04-24T13:05:43;11.10;99.90
4356;DHT22;64374;51.482;7.408;2023-04-24T13:08:11;10.70;99.90
4356;DHT22;64374;51.482;7.408;2023-04-24T13:10:40;10.60;99.90
4356;DHT22;64374;51.482;7.408;2023-04-24T13:13:09;10.70;99.90
4356;DHT22;64374;51.482;7.408;2023-04-24T13:15:39;10.70;99.90
4356;DHT22;64374;51.482;7.408;2023-04-24T13:18:07;10.60;99.90
4356;DHT22;64374;51.482;7.408;2023-04-24T13:20:35;10.60;99.90
4356;DHT22;64374;51.482;7.408;2023-04-24T13:23:04;10.50;99.90
4356;DHT22;64374;51.482;7.408;2023-04-24T13:25:35;10.50;99.90
4356;DHT22;64374;51.482;7.408;2023-04-24T13:28:05;10.90;99.90
4356;DHT22;64374;51.482;7.408;2023-04-24T13:30:33;11.20;99.90
4356;DHT22;64374;51.482;7.408;2023-04-24T13:33:03;11.20;99.90
4356;DHT22;64374;51.482;7.408;2023-04-24T13:35:32;11.20;99.90
4356;DHT22;64374;51.482;7.408;2023-04-24T13:38:00;11.20;99.90
4356;DHT22;64374;51.482;7.408;2023-04-24T13:40:33;11.30;99.90
4356;DHT22;64374;51.482;7.408;2023-04-24T13:43:01;11.40;99.90
4356;DHT22;64374;51.482;7.408;2023-04-24T13:45:29;11.30;99.90
4356;DHT22;64374;51.482;7.408;2023-04-24T13:47:58;11.10;99.90
4356;DHT22;64374;51.482;7.408;2023-04-24T13:50:28;11.40;99.90
4356;DHT22;64374;51.482;7.408;2023-04-24T13:52:56;11.70;99.90
4356;DHT22;64374;51.482;7.408;2023-04-24T13:55:29;11.60;99.90
4356;DHT22;64374;51.482;7.408;2023-04-24T13:57:58;11.30;99.90
4356;DHT22;64374;51.482;7.408;2023-04-24T14:00:26;11.00;99.90
4356;DHT22;64374;51.482;7.408;2023-04-24T14:02:54;11.20;99.90
4356;DHT22;64374;51.482;7.408;2023-04-24T14:05:23;11.30;99.90
4356;DHT22;64374;51.482;7.408;2023-04-24T14:07:53;11.20;99.90
4356;DHT22;64374;51.482;7.408;2023-04-24T14:10:22;11.00;99.90
4356;DHT22;64374;51.482;7.408;2023-04-24T14:12:51;11.00;99.90
4356;DHT22;64374;51.482;7.408;2023-04-24T14:15:21;11.10;99.90
4356;DHT22;64374;51.482;7.408;2023-04-24T14:17:49;11.30;99.90
4356;DHT22;64374;51.482;7.408;2023-04-24T14:20:19;11.30;99.90
4356;DHT22;64374;51.482;7.408;2023-04-24T14:22:47;11.20;99.90
4356;DHT22;64374;51.482;7.408;2023-04-24T14:25:17;11.40;99.90
4356;DHT22;64374;51.482;7.408;2023-04-24T14:27:45;11.30;99.90
4356;DHT22;64374;51.482;7.408;2023-04-24T14:30:14;11.50;99.90
4356;DHT22;64374;51.482;7.408;2023-04-24T14:32:42;11.50;99.90
4356;DHT22;64374;51.482;7.408;2023-04-24T14:35:11;11.60;99.90
4356;DHT22;64374;51.482;7.408;2023-04-24T14:37:41;11.50;99.90
4356;DHT22;64374;51.482;7.408;2023-04-24T14:40:33;11.30;99.90
4356;DHT22;64374;51.482;7.408;2023-04-24T14:43:22;11.30;99.90
4356;DHT22;64374;51.482;7.408;2023-04-24T14:45:50;11.40;99.90
4356;DHT22;64374;51.482;7.408;2023-04-24T14:48:19;11.50;99.90
4356;DHT22;64374;51.482;7.408;2023-04-24T14:50:48;11.40;99.90
4356;DHT22;64374;51.482;7.408;2023-04-24T14:53:16;11.40;99.90
4356;DHT22;64374;51.482;7.408;2023-04-24T14:55:47;11.20;99.90
4356;DHT22;64374;51.482;7.408;2023-04-24T14:58:16;11.20;99.90
4356;DHT22;64374;51.482;7.408;2023-04-24T15:00:47;11.20;99.90
4356;DHT22;64374;51.482;7.408;2023-04-24T15:03:18;11.20;99.90
4356;DHT22;64374;51.482;7.408;2023-04-24T15:05:49;11.10;99.90
4356;DHT22;64374;51.482;7.408;2023-04-24T15:08:17;11.10;99.90
4356;DHT22;64374;51.482;7.408;2023-04-24T15:10:47;11.00;99.90
4356;DHT22;64374;51.482;7.408;2023-04-24T15:13:16;11.10;99.90
4356;DHT22;64374;51.482;7.408;2023-04-24T15:15:47;11.30;99.90
4356;DHT22;64374;51.482;7.408;2023-04-24T15:18:15;11.50;99.90
4356;DHT22;64374;51.482;7.408;2023-04-24T15:20:44;11.50;99.90
4356;DHT22;64374;51.482;7.408;2023-04-24T15:23:13;11.20;99.90
4356;DHT22;64374;51.482;7.408;2023-04-24T15:25:41;11.30;99.90
4356;DHT22;64374;51.482;7.408;2023-04-24T15:28:11;11.30;99.90
4356;DHT22;64374;51.482;7.408;2023-04-24T15:30:40;11.20;99.90
4356;DHT22;64374;51.482;7.408;2023-04-24T15:33:08;11.20;99.90
4356;DHT22;64374;51.482;7.408;2023-04-24T15:35:38;11.10;99.90
4356;DHT22;64374;51.482;7.408;2023-04-24T15:38:07;11.10;99.90
4356;DHT22;64374;51.482;7.408;2023-04-24T15:40:37;11.20;99.90
4356;DHT22;64374;51.482;7.408;2023-04-24T15:43:06;11.40;99.90
4356;DHT22;64374;51.482;7.408;2023-04-24T15:45:35;11.40;99.90
4356;DHT22;64374;51.482;7.408;2023-04-24T15:48:04;11.50;99.90
4356;DHT22;64374;51.482;7.408;2023-04-24T15:50:33;11.80;99.90
4356;DHT22;64374;51.482;7.408;2023-04-24T15:53:01;11.80;99.90
4356;DHT22;64374;51.482;7.408;2023-04-24T15:55:29;11.90;99.90
4356;DHT22;64374;51.482;7.408;2023-04-24T15:57:59;11.70;99.90
4356;DHT22;64374;51.482;7.408;2023-04-24T16:00:28;11.50;99.90
4356;DHT22;64374;51.482;7.408;2023-04-24T16:03:02;11.70;99.90
4356;DHT22;64374;51.482;7.408;2023-04-24T16:05:33;11.90;99.90
4356;DHT22;64374;51.482;7.408;2023-04-24T16:08:02;11.90;99.90